Time;durP1;ratioP1;P1;durP2;ratioP2;P2;SDS_P1;SDS_P2;PMS_P1;PMS_P2;Temp;Humidity;BMP_temperature;BMP_pressure;BME280_temperature;BME280_humidity;BME280_pressure;Samples;Min_cycle;Max_cycle;Signal;HPM_P1;HPM_P2
2023/08/14 00:00:07;;;;;;;5.00;4.60;;;;;;;;;;5021941;28;21035;-81
2023/08/14 00:02:33;;;;;;;5.00;4.50;;;;;;;;;;5021605;28;20453;-82
2023/08/14 00:04:59;;;;;;;8.70;4.80;;;;;;;;;;5022615;28;20651;-81
2023/08/14 00:07:25;;;;;;;7.27;4.47;;;;;;;;;;5016704;28;20517;-81
2023/08/14 00:09:52;;;;;;;4.13;3.83;;;;;;;;;;5022693;28;20814;-82
2023/08/14 00:12:18;;;;;;;4.70;4.30;;;;;;;;;;5023040;28;20525;-81
2023/08/14 00:14:44;;;;;;;6.93;4.33;;;;;;;;;;5018213;28;20537;-79
2023/08/14 00:17:10;;;;;;;6.97;4.47;;;;;;;;;;5020873;28;20467;-81
2023/08/14 00:19:36;;;;;;;4.63;4.37;;;;;;;;;;5022804;28;20949;-83
2023/08/14 00:22:02;;;;;;;4.90;4.60;;;;;;;;;;5022635;28;20430;-80
2023/08/14 00:24:28;;;;;;;6.53;4.67;;;;;;;;;;5022681;28;20513;-81
2023/08/14 00:26:54;;;;;;;4.10;3.90;;;;;;;;;;5021497;28;20434;-80
2023/08/14 00:29:20;;;;;;;4.60;4.33;;;;;;;;;;5022026;28;20473;-81
2023/08/14 00:31:46;;;;;;;6.10;3.87;;;;;;;;;;5021491;28;20461;-81
2023/08/14 00:34:12;;;;;;;4.63;4.37;;;;;;;;;;5016169;28;20438;-82
2023/08/14 00:36:37;;;;;;;5.73;5.23;;;;;;;;;;5022969;28;21177;-81
2023/08/14 00:39:04;;;;;;;4.47;4.27;;;;;;;;;;5020046;28;20803;-79
2023/08/14 00:41:30;;;;;;;4.70;4.50;;;;;;;;;;5022555;28;20628;-81
2023/08/14 00:43:56;;;;;;;3.90;3.70;;;;;;;;;;5004783;28;20458;-80
2023/08/14 00:46:22;;;;;;;5.40;4.20;;;;;;;;;;5022174;28;20438;-80
2023/08/14 00:48:49;;;;;;;5.63;4.23;;;;;;;;;;5021763;28;20581;-79
2023/08/14 00:51:15;;;;;;;5.47;4.60;;;;;;;;;;5020815;28;20469;-81
2023/08/14 00:53:41;;;;;;;4.33;4.00;;;;;;;;;;5020692;28;20431;-79
2023/08/14 00:56:07;;;;;;;4.77;4.40;;;;;;;;;;5019893;28;20972;-80
2023/08/14 00:58:33;;;;;;;5.17;4.20;;;;;;;;;;5021167;28;20450;-81
2023/08/14 01:00:59;;;;;;;4.17;3.90;;;;;;;;;;5020102;28;20466;-81
2023/08/14 01:03:25;;;;;;;4.67;3.70;;;;;;;;;;5018110;28;21049;-82
2023/08/14 01:05:51;;;;;;;4.20;4.00;;;;;;;;;;4999179;28;20459;-80
2023/08/14 01:08:17;;;;;;;4.60;4.30;;;;;;;;;;5015952;28;20439;-81
2023/08/14 01:10:58;;;;;;;4.57;4.47;;;;;;;;;;5019072;28;20470;-81
2023/08/14 01:13:37;;;;;;;4.93;4.37;;;;;;;;;;5019656;28;20438;-80
2023/08/14 01:16:06;;;;;;;5.07;4.67;;;;;;;;;;5021046;28;20426;-80
2023/08/14 01:18:34;;;;;;;5.43;5.07;;;;;;;;;;5013351;28;20493;-80
2023/08/14 01:21:18;;;;;;;5.30;4.47;;;;;;;;;;5019468;28;20445;-80
2023/08/14 01:24:02;;;;;;;6.07;4.13;;;;;;;;;;5019991;28;20442;-81
2023/08/14 01:26:29;;;;;;;5.23;4.53;;;;;;;;;;5019939;28;20485;-80
2023/08/14 01:28:56;;;;;;;4.70;4.40;;;;;;;;;;5020804;28;20435;-82
2023/08/14 01:31:21;;;;;;;5.87;4.43;;;;;;;;;;5021880;28;20994;-80
2023/08/14 01:33:47;;;;;;;5.03;4.53;;;;;;;;;;5018192;28;20443;-79
2023/08/14 01:36:32;;;;;;;8.30;4.53;;;;;;;;;;5019348;28;20450;-80
2023/08/14 01:39:09;;;;;;;5.17;4.43;;;;;;;;;;5020766;28;21203;-79
2023/08/14 01:41:35;;;;;;;5.20;4.87;;;;;;;;;;5021499;28;20446;-80
2023/08/14 01:44:03;;;;;;;4.80;4.30;;;;;;;;;;5021133;28;20530;-80
2023/08/14 01:46:32;;;;;;;5.27;4.90;;;;;;;;;;5021292;28;20442;-80
2023/08/14 01:48:59;;;;;;;8.30;5.07;;;;;;;;;;5021828;28;20521;-80
2023/08/14 01:51:25;;;;;;;4.87;4.20;;;;;;;;;;5021291;28;21035;-80
2023/08/14 01:53:51;;;;;;;5.20;4.80;;;;;;;;;;5020980;28;20449;-81
2023/08/14 01:56:17;;;;;;;5.13;4.73;;;;;;;;;;5021294;28;20529;-80
2023/08/14 01:58:43;;;;;;;5.10;4.60;;;;;;;;;;5022102;28;20438;-80
2023/08/14 02:01:09;;;;;;;5.13;4.70;;;;;;;;;;5018943;28;20584;-81
2023/08/14 02:03:35;;;;;;;5.67;4.50;;;;;;;;;;5019663;28;20556;-81
2023/08/14 02:06:01;;;;;;;7.53;4.70;;;;;;;;;;5026814;28;20804;-80
2023/08/14 02:08:27;;;;;;;8.10;5.00;;;;;;;;;;5021958;28;20438;-80
2023/08/14 02:10:53;;;;;;;5.90;5.40;;;;;;;;;;5021424;28;20479;-80
2023/08/14 02:13:19;;;;;;;5.10;4.73;;;;;;;;;;5021683;28;20442;-81
2023/08/14 02:15:45;;;;;;;5.30;5.00;;;;;;;;;;5021438;28;21479;-80
2023/08/14 02:18:12;;;;;;;7.00;5.53;;;;;;;;;;5027593;28;20815;-80
2023/08/14 02:20:48;;;;;;;8.63;5.80;;;;;;;;;;5034473;28;20452;-81
2023/08/14 02:23:14;;;;;;;5.10;4.90;;;;;;;;;;5028754;28;20517;-79
2023/08/14 02:25:43;;;;;;;6.57;4.90;;;;;;;;;;5028670;28;20910;-79
2023/08/14 02:28:09;;;;;;;5.57;5.13;;;;;;;;;;5028207;28;20949;-78
2023/08/14 02:30:41;;;;;;;5.00;4.70;;;;;;;;;;5027819;28;20980;-80
2023/08/14 02:33:07;;;;;;;5.63;5.23;;;;;;;;;;5025382;28;20430;-78
2023/08/14 02:35:34;;;;;;;5.30;4.90;;;;;;;;;;5030981;28;20454;-80
2023/08/14 02:38:01;;;;;;;5.30;4.90;;;;;;;;;;5027229;28;20430;-80
2023/08/14 02:40:27;;;;;;;5.60;5.20;;;;;;;;;;5043075;28;20430;-79
2023/08/14 02:42:58;;;;;;;5.17;4.63;;;;;;;;;;5025779;28;21119;-80
2023/08/14 02:45:24;;;;;;;6.60;4.67;;;;;;;;;;5023875;28;20557;-80
2023/08/14 02:47:50;;;;;;;4.83;4.73;;;;;;;;;;5005649;28;20521;-80
2023/08/14 02:50:16;;;;;;;5.47;5.07;;;;;;;;;;5021707;28;20462;-78
2023/08/14 02:52:42;;;;;;;4.93;4.73;;;;;;;;;;5025756;28;20449;-79
2023/08/14 02:55:08;;;;;;;5.57;5.17;;;;;;;;;;5016159;28;20805;-80
2023/08/14 02:57:34;;;;;;;5.97;5.27;;;;;;;;;;5020476;28;21199;-80
2023/08/14 03:00:00;;;;;;;9.37;5.57;;;;;;;;;;5024059;28;20799;-79
2023/08/14 03:02:26;;;;;;;6.30;5.10;;;;;;;;;;5023771;28;20514;-79
2023/08/14 03:04:52;;;;;;;5.77;5.00;;;;;;;;;;5019516;28;20447;-82
2023/08/14 03:07:18;;;;;;;5.13;4.70;;;;;;;;;;5023769;28;20439;-82
2023/08/14 03:18:55;;;;;;;6.33;5.90;;;;;;;;;;5016768;28;20457;-82
2023/08/14 03:21:21;;;;;;;5.13;4.80;;;;;;;;;;5023845;28;20929;-80
2023/08/14 03:23:48;;;;;;;7.50;6.03;;;;;;;;;;5022099;28;20431;-81
2023/08/14 03:26:14;;;;;;;5.37;4.97;;;;;;;;;;5023667;28;21159;-81
2023/08/14 03:28:40;;;;;;;5.97;5.43;;;;;;;;;;5023998;28;20430;-81
2023/08/14 03:31:06;;;;;;;7.33;6.07;;;;;;;;;;5020466;28;20486;-81
2023/08/14 03:33:32;;;;;;;5.60;5.30;;;;;;;;;;5022261;28;20450;-81
2023/08/14 03:35:58;;;;;;;6.10;5.70;;;;;;;;;;5021117;28;20453;-81
2023/08/14 03:38:24;;;;;;;9.63;5.80;;;;;;;;;;5023973;28;20430;-79
2023/08/14 03:40:50;;;;;;;5.40;5.10;;;;;;;;;;5023317;28;20465;-79
2023/08/14 03:43:16;;;;;;;5.80;5.30;;;;;;;;;;5024074;28;20438;-79
2023/08/14 03:45:42;;;;;;;5.20;4.77;;;;;;;;;;5019036;28;20448;-80
2023/08/14 03:48:08;;;;;;;7.07;6.40;;;;;;;;;;5024035;28;20427;-80
2023/08/14 03:50:34;;;;;;;6.07;5.50;;;;;;;;;;5019618;28;20478;-80
2023/08/14 03:53:00;;;;;;;5.97;5.57;;;;;;;;;;5017315;28;20477;-82
2023/08/14 03:55:26;;;;;;;6.33;5.83;;;;;;;;;;5024123;28;20922;-80
2023/08/14 03:57:52;;;;;;;5.77;5.27;;;;;;;;;;5023954;28;20442;-81
2023/08/14 04:00:18;;;;;;;6.70;6.17;;;;;;;;;;5022407;28;21015;-81
2023/08/14 04:02:44;;;;;;;7.00;5.83;;;;;;;;;;5022324;28;20833;-82
2023/08/14 04:05:10;;;;;;;5.97;5.57;;;;;;;;;;5020412;28;20438;-80
2023/08/14 04:07:39;;;;;;;6.53;6.07;;;;;;;;;;5018746;28;20873;-81
2023/08/14 04:10:05;;;;;;;6.40;4.63;;;;;;;;;;5021339;28;20462;-81
2023/08/14 04:12:31;;;;;;;6.03;5.63;;;;;;;;;;5022143;28;20454;-81
2023/08/14 04:15:11;;;;;;;6.33;5.73;;;;;;;;;;5021831;28;20449;-82
2023/08/14 04:17:38;;;;;;;6.57;6.07;;;;;;;;;;5022878;28;20462;-82
2023/08/14 04:20:04;;;;;;;6.20;5.60;;;;;;;;;;5024662;28;20458;-81
2023/08/14 04:22:30;;;;;;;5.97;5.50;;;;;;;;;;5024059;28;20443;-81
2023/08/14 04:24:56;;;;;;;5.10;4.90;;;;;;;;;;5023117;28;20473;-81
2023/08/14 04:27:22;;;;;;;9.13;5.90;;;;;;;;;;5025550;28;20430;-82
2023/08/14 04:29:48;;;;;;;5.77;5.47;;;;;;;;;;5008011;28;20512;-79
2023/08/14 04:32:14;;;;;;;4.90;4.50;;;;;;;;;;5034368;28;20534;-81
2023/08/14 04:34:40;;;;;;;6.70;5.57;;;;;;;;;;5029691;28;20450;-82
2023/08/14 04:37:06;;;;;;;5.63;5.20;;;;;;;;;;5025878;28;20502;-80
2023/08/14 04:39:32;;;;;;;8.53;5.93;;;;;;;;;;5026690;28;20588;-79
2023/08/14 04:41:58;;;;;;;5.60;4.87;;;;;;;;;;5027806;28;20475;-85
2023/08/14 04:44:24;;;;;;;5.03;4.83;;;;;;;;;;5035334;28;20423;-83
2023/08/14 04:46:51;;;;;;;12.53;5.67;;;;;;;;;;5024446;28;20474;-82
2023/08/14 04:49:17;;;;;;;10.83;6.67;;;;;;;;;;5016224;28;20459;-80
2023/08/14 04:51:43;;;;;;;6.20;5.50;;;;;;;;;;5016342;28;20449;-81
2023/08/14 04:54:09;;;;;;;5.87;5.50;;;;;;;;;;5018067;28;20449;-82
2023/08/14 04:56:35;;;;;;;5.63;5.23;;;;;;;;;;5013028;28;20471;-82
2023/08/14 04:59:01;;;;;;;5.30;5.00;;;;;;;;;;5014395;28;20438;-81
2023/08/14 05:01:27;;;;;;;5.53;4.63;;;;;;;;;;5020721;28;20982;-79
2023/08/14 05:03:53;;;;;;;6.43;5.77;;;;;;;;;;5017138;28;20466;-83
2023/08/14 05:06:19;;;;;;;6.73;6.23;;;;;;;;;;4999249;28;20921;-84
2023/08/14 05:08:45;;;;;;;10.03;5.40;;;;;;;;;;5015331;28;21167;-79
2023/08/14 05:11:12;;;;;;;6.07;5.63;;;;;;;;;;5022763;28;20473;-80
2023/08/14 05:13:40;;;;;;;8.20;5.37;;;;;;;;;;5023754;28;20446;-81
2023/08/14 05:16:05;;;;;;;6.60;5.00;;;;;;;;;;5004662;28;20482;-80
2023/08/14 05:18:31;;;;;;;5.73;5.33;;;;;;;;;;5023356;28;20474;-81
2023/08/14 05:20:57;;;;;;;5.93;5.33;;;;;;;;;;5022300;28;20463;-80
2023/08/14 05:23:23;;;;;;;11.30;5.90;;;;;;;;;;5018228;28;21001;-83
2023/08/14 05:25:49;;;;;;;6.27;5.00;;;;;;;;;;5022839;28;20569;-81
2023/08/14 05:28:15;;;;;;;5.40;4.97;;;;;;;;;;5002600;28;21040;-80
2023/08/14 05:30:45;;;;;;;5.87;4.77;;;;;;;;;;5022691;28;20557;-81
2023/08/14 05:33:11;;;;;;;6.33;4.97;;;;;;;;;;5018197;28;20972;-81
2023/08/14 05:35:37;;;;;;;5.00;4.50;;;;;;;;;;5022075;28;20442;-80
2023/08/14 05:38:03;;;;;;;9.30;5.00;;;;;;;;;;5019398;28;20493;-78
2023/08/14 05:40:29;;;;;;;16.27;14.90;;;;;;;;;;5015484;28;20427;-80
2023/08/14 05:43:05;;;;;;;5.37;4.87;;;;;;;;;;5016009;28;20421;-82
2023/08/14 05:45:35;;;;;;;4.90;4.60;;;;;;;;;;5016389;28;20465;-81
2023/08/14 05:48:02;;;;;;;4.67;4.37;;;;;;;;;;5009820;28;20520;-82
2023/08/14 05:50:28;;;;;;;4.80;4.50;;;;;;;;;;5023296;28;20462;-82
2023/08/14 05:52:59;;;;;;;6.50;4.60;;;;;;;;;;5024205;28;20438;-83
2023/08/14 05:55:25;;;;;;;5.03;4.53;;;;;;;;;;5028799;28;20430;-80
2023/08/14 05:57:51;;;;;;;4.30;4.10;;;;;;;;;;5023440;28;21078;-82
2023/08/14 06:00:18;;;;;;;8.40;6.57;;;;;;;;;;5022574;28;20529;-81
2023/08/14 06:02:44;;;;;;;5.27;4.77;;;;;;;;;;5011377;28;20446;-82
2023/08/14 06:08:13;;;;;;;6.67;4.50;;;;;;;;;;5024525;28;20989;-80
2023/08/14 06:10:39;;;;;;;5.67;4.50;;;;;;;;;;5024177;28;20466;-80
2023/08/14 06:13:07;;;;;;;4.30;3.80;;;;;;;;;;5022477;28;20451;-80
2023/08/14 06:15:33;;;;;;;4.07;3.87;;;;;;;;;;5023301;28;20447;-82
2023/08/14 06:17:59;;;;;;;4.13;3.93;;;;;;;;;;5021603;28;20455;-82
2023/08/14 06:20:25;;;;;;;4.10;3.90;;;;;;;;;;5020963;28;20527;-81
2023/08/14 06:22:51;;;;;;;5.23;4.57;;;;;;;;;;5005288;28;20443;-81
2023/08/14 06:25:18;;;;;;;4.80;4.00;;;;;;;;;;5027165;28;20430;-79
2023/08/14 06:27:44;;;;;;;4.47;4.17;;;;;;;;;;5031645;28;20495;-79
2023/08/14 06:30:11;;;;;;;6.10;3.80;;;;;;;;;;5032549;28;20480;-81
2023/08/14 06:32:37;;;;;;;6.20;4.60;;;;;;;;;;5019329;28;20451;-80
2023/08/14 06:35:04;;;;;;;4.37;4.07;;;;;;;;;;5027263;28;20437;-79
2023/08/14 06:37:30;;;;;;;5.43;4.37;;;;;;;;;;5005303;28;20434;-80
2023/08/14 06:39:56;;;;;;;5.30;4.27;;;;;;;;;;5024720;28;20883;-82
2023/08/14 06:42:22;;;;;;;5.23;4.30;;;;;;;;;;5017880;28;20514;-81
2023/08/14 06:44:48;;;;;;;5.00;4.60;;;;;;;;;;5017865;28;20427;-82
2023/08/14 06:47:14;;;;;;;6.43;4.93;;;;;;;;;;5009567;28;20449;-81
2023/08/14 06:53:02;;;;;;;4.33;4.03;;;;;;;;;;4999110;28;20523;-80
2023/08/14 06:55:28;;;;;;;4.63;4.23;;;;;;;;;;5007599;28;20419;-82
2023/08/14 06:57:54;;;;;;;4.27;4.07;;;;;;;;;;5025853;28;20577;-82
2023/08/14 07:00:20;;;;;;;8.20;4.87;;;;;;;;;;5000462;28;20431;-82
2023/08/14 07:02:47;;;;;;;6.20;5.13;;;;;;;;;;5024352;28;20430;-80
2023/08/14 07:05:13;;;;;;;5.53;5.03;;;;;;;;;;5009155;28;20476;-81
2023/08/14 07:07:39;;;;;;;4.80;4.57;;;;;;;;;;5014980;28;20430;-82
2023/08/14 07:10:06;;;;;;;5.40;3.77;;;;;;;;;;5017313;28;20469;-81
2023/08/14 07:12:32;;;;;;;5.77;5.13;;;;;;;;;;5013596;28;20443;-81
2023/08/14 07:15:00;;;;;;;4.10;3.90;;;;;;;;;;5015055;28;20443;-80
2023/08/14 07:17:26;;;;;;;5.47;4.10;;;;;;;;;;5017594;28;20486;-81
2023/08/14 07:19:53;;;;;;;4.83;4.37;;;;;;;;;;5019542;28;20454;-80
2023/08/14 07:22:19;;;;;;;5.73;5.23;;;;;;;;;;5020625;28;20458;-80
2023/08/14 07:24:45;;;;;;;11.13;4.57;;;;;;;;;;5025194;28;20446;-81
2023/08/14 07:27:11;;;;;;;4.53;4.20;;;;;;;;;;5025757;28;21444;-81
2023/08/14 07:29:37;;;;;;;5.20;4.73;;;;;;;;;;5024553;28;20478;-79
2023/08/14 07:32:03;;;;;;;5.20;4.63;;;;;;;;;;5018312;28;20482;-79
2023/08/14 07:34:29;;;;;;;5.20;4.90;;;;;;;;;;5025440;28;20444;-79
2023/08/14 07:40:36;;;;;;;4.37;3.80;;;;;;;;;;5003443;28;20806;-81
2023/08/14 07:43:02;;;;;;;4.33;3.80;;;;;;;;;;5022451;28;20418;-78
2023/08/14 07:45:28;;;;;;;5.00;4.40;;;;;;;;;;5021418;28;20416;-79
2023/08/14 07:47:54;;;;;;;5.03;4.73;;;;;;;;;;5023658;28;20438;-79
2023/08/14 07:50:20;;;;;;;8.97;6.53;;;;;;;;;;5023456;28;20996;-80
2023/08/14 07:52:46;;;;;;;5.67;5.37;;;;;;;;;;5020285;28;20434;-83
2023/08/14 07:55:12;;;;;;;4.63;4.20;;;;;;;;;;5022650;28;21240;-78
2023/08/14 07:57:38;;;;;;;4.30;4.00;;;;;;;;;;5015143;28;20513;-77
2023/08/14 08:00:08;;;;;;;3.80;3.50;;;;;;;;;;5006218;28;21050;-77
2023/08/14 08:02:34;;;;;;;3.93;3.80;;;;;;;;;;5017476;28;20438;-79
2023/08/14 08:05:00;;;;;;;4.37;4.00;;;;;;;;;;5021158;28;20429;-80
2023/08/14 08:07:26;;;;;;;4.30;4.00;;;;;;;;;;5023023;28;20454;-78
2023/08/14 08:09:52;;;;;;;4.93;3.67;;;;;;;;;;5018825;28;21095;-78
2023/08/14 08:12:18;;;;;;;7.10;4.80;;;;;;;;;;5021554;28;20435;-78
2023/08/14 08:14:44;;;;;;;4.13;3.73;;;;;;;;;;5028557;28;20423;-79
2023/08/14 08:17:10;;;;;;;5.60;3.80;;;;;;;;;;5021172;28;20447;-79
2023/08/14 08:19:36;;;;;;;4.40;4.10;;;;;;;;;;5014899;28;20520;-78
2023/08/14 08:22:02;;;;;;;3.97;3.77;;;;;;;;;;5015470;28;20804;-78
2023/08/14 08:24:28;;;;;;;3.70;3.60;;;;;;;;;;5022953;28;20407;-80
2023/08/14 08:26:54;;;;;;;4.30;3.90;;;;;;;;;;5020959;28;20799;-79
2023/08/14 08:29:21;;;;;;;4.57;4.00;;;;;;;;;;5020331;28;21165;-79
2023/08/14 08:31:47;;;;;;;4.43;4.03;;;;;;;;;;5014937;28;20489;-79
2023/08/14 08:34:13;;;;;;;4.23;3.73;;;;;;;;;;5018612;28;20430;-78
2023/08/14 08:36:39;;;;;;;3.63;3.33;;;;;;;;;;5023189;28;20481;-81
2023/08/14 08:42:15;;;;;;;3.30;3.10;;;;;;;;;;5010056;28;20465;-81
2023/08/14 08:44:47;;;;;;;4.03;3.73;;;;;;;;;;5021651;28;20430;-81
2023/08/14 08:47:17;;;;;;;3.80;3.50;;;;;;;;;;5024906;28;20473;-81
2023/08/14 08:49:44;;;;;;;3.77;3.17;;;;;;;;;;5021554;28;20541;-81
2023/08/14 08:52:10;;;;;;;3.67;3.50;;;;;;;;;;5019932;28;20449;-81
2023/08/14 08:54:37;;;;;;;3.00;2.73;;;;;;;;;;5020533;28;20430;-80
2023/08/14 08:57:04;;;;;;;3.83;3.63;;;;;;;;;;5022987;28;20549;-78
2023/08/14 08:59:31;;;;;;;3.00;2.70;;;;;;;;;;5019594;28;20443;-80
2023/08/14 09:01:57;;;;;;;3.30;3.10;;;;;;;;;;5018829;28;20801;-78
2023/08/14 09:04:23;;;;;;;2.70;2.57;;;;;;;;;;5022636;28;20517;-77
2023/08/14 09:06:49;;;;;;;5.83;3.40;;;;;;;;;;5023956;28;20530;-77
2023/08/14 09:09:15;;;;;;;4.90;3.80;;;;;;;;;;5021736;28;20482;-76
2023/08/14 09:11:41;;;;;;;3.07;2.87;;;;;;;;;;5018912;28;20561;-77
2023/08/14 09:14:07;;;;;;;3.03;2.83;;;;;;;;;;5021268;28;21011;-76
2023/08/14 09:16:34;;;;;;;3.13;2.47;;;;;;;;;;5019116;28;20422;-78
2023/08/14 09:19:00;;;;;;;2.83;2.43;;;;;;;;;;5019920;28;20489;-78
2023/08/14 09:21:27;;;;;;;2.77;2.57;;;;;;;;;;5022683;28;20424;-78
2023/08/14 09:23:54;;;;;;;2.87;2.70;;;;;;;;;;5018330;28;20526;-77
2023/08/14 09:26:20;;;;;;;1.73;1.63;;;;;;;;;;5016640;28;20521;-78
2023/08/14 09:28:47;;;;;;;2.00;1.90;;;;;;;;;;5022164;28;20443;-79
2023/08/14 09:31:13;;;;;;;2.33;2.23;;;;;;;;;;5014319;28;20984;-77
2023/08/14 09:33:41;;;;;;;2.07;1.90;;;;;;;;;;5020103;28;20464;-76
2023/08/14 09:36:07;;;;;;;1.90;1.80;;;;;;;;;;5023228;28;20447;-76
2023/08/14 09:38:33;;;;;;;1.70;1.70;;;;;;;;;;5017799;28;20987;-77
2023/08/14 09:41:00;;;;;;;1.93;1.83;;;;;;;;;;5016145;28;20439;-77
2023/08/14 09:43:26;;;;;;;2.23;2.03;;;;;;;;;;5016825;28;21042;-77
2023/08/14 09:45:53;;;;;;;2.00;1.87;;;;;;;;;;5015690;28;20914;-76
2023/08/14 09:48:19;;;;;;;1.87;1.87;;;;;;;;;;5018596;28;20866;-78
2023/08/14 09:50:51;;;;;;;3.00;2.20;;;;;;;;;;5016961;28;20506;-80
2023/08/14 09:53:18;;;;;;;2.43;2.03;;;;;;;;;;5015883;28;20451;-77
2023/08/14 09:55:44;;;;;;;2.67;2.40;;;;;;;;;;5016560;28;20438;-78
2023/08/14 09:58:10;;;;;;;2.20;2.10;;;;;;;;;;5010250;28;20518;-80
2023/08/14 10:00:40;;;;;;;4.00;2.60;;;;;;;;;;5023163;28;20840;-78
2023/08/14 10:03:07;;;;;;;5.40;2.13;;;;;;;;;;5009674;28;20422;-77
2023/08/14 10:05:34;;;;;;;2.37;2.27;;;;;;;;;;5019110;28;20440;-79
2023/08/14 10:08:01;;;;;;;2.60;2.40;;;;;;;;;;5020685;28;20830;-73
2023/08/14 10:10:31;;;;;;;4.03;2.80;;;;;;;;;;5019808;28;20557;-79
2023/08/14 10:13:04;;;;;;;3.73;3.43;;;;;;;;;;5013822;28;20431;-76
2023/08/14 10:15:32;;;;;;;2.40;2.03;;;;;;;;;;5018366;28;20501;-78
2023/08/14 10:18:01;;;;;;;5.03;2.13;;;;;;;;;;5018416;28;20884;-80
2023/08/14 10:20:28;;;;;;;2.10;2.00;;;;;;;;;;5019216;28;20466;-76
2023/08/14 10:22:55;;;;;;;2.40;2.00;;;;;;;;;;5019313;28;20577;-78
2023/08/14 10:25:22;;;;;;;2.33;2.23;;;;;;;;;;5020469;28;20430;-77
2023/08/14 10:27:48;;;;;;;2.10;2.00;;;;;;;;;;5018599;28;20521;-78
2023/08/14 10:30:15;;;;;;;3.00;2.20;;;;;;;;;;5019416;28;20515;-79
2023/08/14 10:32:43;;;;;;;2.20;2.03;;;;;;;;;;5025769;28;20415;-85
2023/08/14 10:35:11;;;;;;;2.50;2.00;;;;;;;;;;5023255;28;20446;-84
2023/08/14 10:37:44;;;;;;;2.20;1.70;;;;;;;;;;5020259;28;20434;-84
2023/08/14 10:40:14;;;;;;;2.73;2.53;;;;;;;;;;5007807;28;20532;-84
2023/08/14 10:42:53;;;;;;;2.10;2.00;;;;;;;;;;5023955;28;20430;-83
2023/08/14 10:45:22;;;;;;;1.73;1.73;;;;;;;;;;5028216;28;20440;-81
2023/08/14 10:47:48;;;;;;;2.43;2.33;;;;;;;;;;5028326;28;20442;-80
2023/08/14 10:50:21;;;;;;;2.80;2.40;;;;;;;;;;5026425;28;20505;-82
2023/08/14 10:52:48;;;;;;;1.73;1.67;;;;;;;;;;5031840;28;20537;-82
2023/08/14 10:55:16;;;;;;;2.20;2.10;;;;;;;;;;5025724;28;21223;-83
2023/08/14 10:57:42;;;;;;;3.10;1.93;;;;;;;;;;5020633;28;20458;-84
2023/08/14 11:00:20;;;;;;;2.40;2.00;;;;;;;;;;5022304;28;20473;-86
2023/08/14 11:02:50;;;;;;;1.60;1.60;;;;;;;;;;5016212;28;20443;-77
2023/08/14 11:05:17;;;;;;;1.63;1.63;;;;;;;;;;5022388;28;20434;-79
2023/08/14 11:08:04;;;;;;;2.60;2.50;;;;;;;;;;5016855;28;20438;-78
2023/08/14 11:10:32;;;;;;;3.07;2.27;;;;;;;;;;5023279;28;20832;-77
2023/08/14 11:12:58;;;;;;;2.30;2.20;;;;;;;;;;5023922;28;20639;-78
2023/08/14 11:15:24;;;;;;;2.33;2.13;;;;;;;;;;5024998;28;20438;-77
2023/08/14 11:17:50;;;;;;;2.33;2.13;;;;;;;;;;5020874;28;20998;-80
2023/08/14 11:20:16;;;;;;;2.43;2.37;;;;;;;;;;5024952;28;20454;-79
2023/08/14 11:22:49;;;;;;;2.10;2.00;;;;;;;;;;5016275;28;20435;-78
2023/08/14 11:25:17;;;;;;;3.20;2.23;;;;;;;;;;5015944;28;20438;-77
2023/08/14 11:27:49;;;;;;;3.37;2.40;;;;;;;;;;5018157;28;20437;-77
2023/08/14 11:30:15;;;;;;;3.60;2.77;;;;;;;;;;5017882;28;20498;-76
2023/08/14 11:32:41;;;;;;;2.67;2.00;;;;;;;;;;5020885;28;20437;-78
2023/08/14 11:35:08;;;;;;;2.40;2.33;;;;;;;;;;5015840;28;20504;-78
2023/08/14 11:37:34;;;;;;;1.77;1.77;;;;;;;;;;5016751;28;20829;-78
2023/08/14 11:40:04;;;;;;;2.13;2.03;;;;;;;;;;5021721;28;20435;-79
2023/08/14 11:42:32;;;;;;;3.63;2.30;;;;;;;;;;5024275;28;20427;-77
2023/08/14 11:44:58;;;;;;;2.03;2.03;;;;;;;;;;5018138;28;20935;-78
2023/08/14 11:47:24;;;;;;;3.00;2.27;;;;;;;;;;5023977;28;20423;-78
2023/08/14 11:49:51;;;;;;;3.07;2.47;;;;;;;;;;5020832;28;20462;-79
2023/08/14 11:52:18;;;;;;;2.50;2.40;;;;;;;;;;5024965;28;20963;-78
2023/08/14 11:54:45;;;;;;;1.80;1.80;;;;;;;;;;5021451;28;20461;-78
2023/08/14 11:57:13;;;;;;;3.20;3.00;;;;;;;;;;5022798;28;20514;-78
2023/08/14 11:59:45;;;;;;;2.87;2.67;;;;;;;;;;5017177;28;20977;-78
2023/08/14 12:02:11;;;;;;;2.70;2.50;;;;;;;;;;5016924;28;20420;-77
2023/08/14 12:04:41;;;;;;;3.17;2.90;;;;;;;;;;5024113;28;20509;-79
2023/08/14 12:07:07;;;;;;;3.90;2.60;;;;;;;;;;5018099;28;20454;-78
2023/08/14 12:09:34;;;;;;;2.90;2.70;;;;;;;;;;5017362;28;21134;-77
2023/08/14 12:12:00;;;;;;;2.43;2.30;;;;;;;;;;5019125;28;20423;-78
2023/08/14 12:14:46;;;;;;;3.60;2.87;;;;;;;;;;5012835;28;20435;-79
2023/08/14 12:17:13;;;;;;;3.17;2.87;;;;;;;;;;5014864;28;20572;-78
2023/08/14 12:19:41;;;;;;;3.50;2.30;;;;;;;;;;5015808;28;20794;-78
2023/08/14 12:22:07;;;;;;;2.80;2.67;;;;;;;;;;5024587;28;20946;-78
2023/08/14 12:24:40;;;;;;;2.70;2.50;;;;;;;;;;5021767;28;20445;-79
2023/08/14 12:27:15;;;;;;;4.53;2.57;;;;;;;;;;5019138;28;20422;-78
2023/08/14 12:29:41;;;;;;;2.77;2.47;;;;;;;;;;5017742;28;20447;-79
2023/08/14 12:32:07;;;;;;;2.80;2.60;;;;;;;;;;5023213;28;20469;-78
2023/08/14 12:34:33;;;;;;;5.70;5.23;;;;;;;;;;5009884;28;20431;-78
2023/08/14 12:36:59;;;;;;;2.83;2.63;;;;;;;;;;5016642;28;20447;-77
2023/08/14 12:39:26;;;;;;;2.80;2.60;;;;;;;;;;5017446;28;20777;-77
2023/08/14 12:41:56;;;;;;;2.23;2.23;;;;;;;;;;5019677;28;20436;-78
2023/08/14 12:44:22;;;;;;;2.67;2.57;;;;;;;;;;5017850;28;20919;-77
2023/08/14 12:46:48;;;;;;;3.07;2.87;;;;;;;;;;5017824;28;20442;-78
2023/08/14 12:49:14;;;;;;;2.80;2.70;;;;;;;;;;5023529;28;20453;-76
2023/08/14 12:51:41;;;;;;;3.73;3.43;;;;;;;;;;5021537;28;20517;-78
2023/08/14 12:54:08;;;;;;;3.40;3.10;;;;;;;;;;5022298;28;20444;-78
2023/08/14 12:56:36;;;;;;;3.00;2.80;;;;;;;;;;5019666;28;20442;-79
2023/08/14 12:59:02;;;;;;;4.10;2.90;;;;;;;;;;5021789;28;20422;-79
2023/08/14 13:01:29;;;;;;;2.90;2.80;;;;;;;;;;5018980;28;20444;-79
2023/08/14 13:03:55;;;;;;;3.23;3.00;;;;;;;;;;5019052;28;20447;-77
2023/08/14 13:06:21;;;;;;;3.47;3.27;;;;;;;;;;4999112;28;20961;-76
2023/08/14 13:08:48;;;;;;;3.53;3.33;;;;;;;;;;5015286;28;20446;-77
2023/08/14 13:11:14;;;;;;;3.90;3.10;;;;;;;;;;5011030;28;20965;-78
2023/08/14 13:13:41;;;;;;;3.67;3.47;;;;;;;;;;5020527;28;20512;-78
2023/08/14 13:16:07;;;;;;;3.50;3.40;;;;;;;;;;4999122;28;21266;-74
2023/08/14 13:18:33;;;;;;;3.87;3.57;;;;;;;;;;5021913;28;20469;-77
2023/08/14 13:21:00;;;;;;;3.53;3.23;;;;;;;;;;5019745;28;20517;-76
2023/08/14 13:23:26;;;;;;;3.70;3.17;;;;;;;;;;5021322;28;20466;-78
2023/08/14 13:25:54;;;;;;;3.67;3.27;;;;;;;;;;5021121;28;20466;-78
2023/08/14 13:28:20;;;;;;;3.30;3.10;;;;;;;;;;5016414;28;20465;-79
2023/08/14 13:30:49;;;;;;;3.30;3.20;;;;;;;;;;5015441;28;20470;-76
2023/08/14 13:33:15;;;;;;;3.93;3.73;;;;;;;;;;5000041;28;20474;-75
2023/08/14 13:35:41;;;;;;;2.70;2.60;;;;;;;;;;5018598;28;20435;-79
2023/08/14 13:38:08;;;;;;;5.23;3.30;;;;;;;;;;5023418;28;20433;-76
2023/08/14 13:40:35;;;;;;;3.43;3.07;;;;;;;;;;5019745;28;20443;-76
2023/08/14 13:43:01;;;;;;;3.87;3.57;;;;;;;;;;5020210;28;20651;-78
2023/08/14 13:45:29;;;;;;;3.40;3.20;;;;;;;;;;5012143;28;20522;-78
2023/08/14 13:47:55;;;;;;;3.23;3.13;;;;;;;;;;5017163;28;20426;-79
2023/08/14 13:50:26;;;;;;;3.40;3.20;;;;;;;;;;5021087;28;20975;-81
2023/08/14 13:52:52;;;;;;;3.77;3.30;;;;;;;;;;5016762;28;20958;-79
2023/08/14 13:55:19;;;;;;;2.40;2.40;;;;;;;;;;5019660;28;20541;-79
2023/08/14 13:57:45;;;;;;;3.50;3.20;;;;;;;;;;5020043;28;20426;-78
2023/08/14 14:00:11;;;;;;;3.60;3.40;;;;;;;;;;5019559;28;20886;-79
2023/08/14 14:02:38;;;;;;;3.17;2.63;;;;;;;;;;5002439;28;20439;-81
2023/08/14 14:05:04;;;;;;;3.57;3.30;;;;;;;;;;5003087;28;20427;-78
2023/08/14 14:07:30;;;;;;;3.60;3.40;;;;;;;;;;5002371;28;20434;-78
2023/08/14 14:09:58;;;;;;;4.03;3.83;;;;;;;;;;5024913;28;21165;-78
2023/08/14 14:12:26;;;;;;;3.97;3.40;;;;;;;;;;5026757;28;20844;-80
2023/08/14 14:14:55;;;;;;;3.80;3.60;;;;;;;;;;5007992;28;20939;-79
2023/08/14 14:17:22;;;;;;;3.83;3.60;;;;;;;;;;5003757;28;20477;-78
2023/08/14 14:19:49;;;;;;;3.50;3.40;;;;;;;;;;5012860;28;20512;-78
2023/08/14 14:22:15;;;;;;;4.20;3.90;;;;;;;;;;5023566;28;20450;-78
2023/08/14 14:24:41;;;;;;;3.80;3.67;;;;;;;;;;5022688;28;20443;-78
2023/08/14 14:27:07;;;;;;;2.93;2.80;;;;;;;;;;5022419;28;20505;-80
2023/08/14 14:29:33;;;;;;;4.60;4.30;;;;;;;;;;5024903;28;20491;-78
2023/08/14 14:31:59;;;;;;;3.20;3.20;;;;;;;;;;5022110;28;20468;-79
2023/08/14 14:34:26;;;;;;;3.43;3.33;;;;;;;;;;5024676;28;20434;-79
2023/08/14 14:36:52;;;;;;;4.07;3.87;;;;;;;;;;5020690;28;20442;-78
2023/08/14 14:39:18;;;;;;;3.67;3.50;;;;;;;;;;5019119;28;20431;-78
2023/08/14 14:41:46;;;;;;;3.43;3.33;;;;;;;;;;5019641;28;20458;-79
2023/08/14 14:44:12;;;;;;;3.17;3.03;;;;;;;;;;5018047;28;20430;-77
2023/08/14 14:46:38;;;;;;;4.03;3.83;;;;;;;;;;5018355;28;20453;-76
2023/08/14 14:49:05;;;;;;;4.20;3.90;;;;;;;;;;5020651;28;20644;-76
2023/08/14 14:51:31;;;;;;;4.97;4.50;;;;;;;;;;5021734;28;20419;-76
2023/08/14 14:53:57;;;;;;;4.33;4.17;;;;;;;;;;5021359;28;20488;-76
2023/08/14 14:56:23;;;;;;;4.50;3.70;;;;;;;;;;5020373;28;20446;-77
2023/08/14 14:58:49;;;;;;;4.70;4.40;;;;;;;;;;5016945;28;20465;-75
2023/08/14 15:01:15;;;;;;;5.90;5.60;;;;;;;;;;5022446;28;20458;-75
2023/08/14 15:03:41;;;;;;;4.50;4.20;;;;;;;;;;5019880;28;20437;-78